Time;durP1;ratioP1;P1;durP2;ratioP2;P2;SDS_P1;SDS_P2;PMS_P1;PMS_P2;Temp;Humidity;BMP_temperature;BMP_pressure;BME280_temperature;BME280_humidity;BME280_pressure;Samples;Min_cycle;Max_cycle;Signal;HPM_P1;HPM_P2
2022/03/05 00:04:00;;;;;;;116.93;46.67;;;0.70;99.90;;;;;;10327507;28;20109;-86
2022/03/05 00:09:01;;;;;;;133.30;45.83;;;0.80;99.90;;;;;;10306430;28;20046;-86
2022/03/05 00:14:01;;;;;;;131.50;46.13;;;0.70;99.90;;;;;;10321400;28;20045;-86
2022/03/05 00:19:03;;;;;;;130.67;45.87;;;0.80;99.90;;;;;;10327235;28;20035;-86
2022/03/05 00:24:03;;;;;;;134.80;48.50;;;0.80;99.90;;;;;;10326682;28;20034;-85
2022/03/05 00:29:04;;;;;;;126.63;44.83;;;0.80;99.90;;;;;;10326750;28;20045;-86
2022/03/05 00:34:05;;;;;;;137.77;46.80;;;0.80;99.90;;;;;;10326687;28;20030;-86
2022/03/05 00:39:06;;;;;;;115.90;46.57;;;0.80;99.90;;;;;;10324863;28;20156;-86
2022/03/05 00:44:07;;;;;;;131.13;44.07;;;0.80;99.90;;;;;;10327039;28;20113;-86
2022/03/05 00:49:08;;;;;;;125.50;45.03;;;0.80;99.90;;;;;;10325282;28;20639;-87
2022/03/05 00:54:08;;;;;;;125.30;50.30;;;0.90;99.90;;;;;;10327373;28;20030;-87
2022/03/05 00:59:09;;;;;;;125.70;46.10;;;0.90;99.90;;;;;;10333508;28;20026;-86
2022/03/05 01:04:10;;;;;;;118.87;45.80;;;0.80;99.90;;;;;;10334967;28;20041;-85
2022/03/05 01:09:10;;;;;;;127.97;48.10;;;0.80;99.90;;;;;;10333120;28;20543;-85
2022/03/05 01:14:11;;;;;;;128.13;43.37;;;0.80;99.90;;;;;;10334517;28;20108;-84
2022/03/05 01:19:12;;;;;;;120.33;45.37;;;0.80;99.90;;;;;;10333798;28;20089;-84
2022/03/05 01:24:13;;;;;;;126.27;44.13;;;0.80;99.90;;;;;;10327052;28;20072;-85
2022/03/05 01:29:14;;;;;;;122.83;45.33;;;0.80;99.90;;;;;;10334055;28;20478;-84
2022/03/05 01:34:14;;;;;;;120.20;48.83;;;0.70;99.90;;;;;;10333457;28;20066;-84
2022/03/05 01:39:16;;;;;;;126.40;46.27;;;0.70;99.90;;;;;;10368391;28;20144;-85
2022/03/05 01:44:20;;;;;;;115.17;43.73;;;0.80;99.90;;;;;;10373906;28;20034;-84
2022/03/05 01:49:20;;;;;;;115.37;43.33;;;0.80;99.90;;;;;;10355072;28;20417;-84
2022/03/05 01:54:22;;;;;;;120.40;43.63;;;0.80;99.90;;;;;;10355299;28;20080;-85
2022/03/05 01:59:23;;;;;;;117.70;44.13;;;0.80;99.90;;;;;;10373185;28;20040;-84
2022/03/05 02:04:24;;;;;;;122.20;42.97;;;0.80;99.90;;;;;;10372231;28;20034;-84
2022/03/05 02:09:25;;;;;;;122.50;43.50;;;0.80;99.90;;;;;;10371403;28;20504;-84
2022/03/05 02:14:25;;;;;;;112.50;39.27;;;0.80;99.90;;;;;;10371978;28;20041;-83
2022/03/05 02:19:27;;;;;;;109.40;39.10;;;0.80;99.90;;;;;;10354866;28;20072;-85
2022/03/05 02:24:33;;;;;;;116.47;41.80;;;0.80;99.90;;;;;;10354405;28;20025;-84
2022/03/05 02:29:35;;;;;;;111.87;40.93;;;0.80;99.90;;;;;;10372116;28;20049;-84
2022/03/05 02:34:36;;;;;;;123.33;42.17;;;0.80;99.90;;;;;;10353734;28;20451;-84
2022/03/05 02:39:37;;;;;;;109.83;42.40;;;0.80;99.90;;;;;;10371231;28;20298;-85
2022/03/05 02:44:38;;;;;;;110.10;40.70;;;0.80;99.90;;;;;;10353707;28;20041;-84
2022/03/05 02:49:39;;;;;;;117.07;40.37;;;0.80;99.90;;;;;;10369748;28;20079;-86
2022/03/05 02:54:39;;;;;;;118.13;41.27;;;0.80;99.90;;;;;;10371029;28;20025;-86
2022/03/05 02:59:40;;;;;;;114.50;40.83;;;0.70;99.90;;;;;;10370383;28;20038;-85
2022/03/05 03:04:41;;;;;;;100.90;37.43;;;0.80;99.90;;;;;;10352584;28;20496;-85
2022/03/05 03:09:42;;;;;;;109.43;40.13;;;0.80;99.90;;;;;;10369339;28;20136;-86
2022/03/05 03:14:43;;;;;;;108.93;36.90;;;0.80;99.90;;;;;;10369907;28;20057;-85
2022/03/05 03:19:44;;;;;;;94.70;35.50;;;0.80;99.90;;;;;;10368015;28;20371;-86
2022/03/05 03:24:44;;;;;;;82.17;34.03;;;0.80;99.90;;;;;;10351323;28;20072;-85
2022/03/05 03:29:45;;;;;;;90.53;32.77;;;0.70;99.90;;;;;;10369782;28;20033;-86
2022/03/05 03:34:46;;;;;;;81.97;31.50;;;0.70;99.90;;;;;;10368127;28;20087;-86
2022/03/05 03:39:46;;;;;;;84.93;32.67;;;0.60;99.90;;;;;;10351196;28;20065;-86
2022/03/05 03:44:47;;;;;;;88.43;31.67;;;0.60;99.90;;;;;;10369116;28;20050;-87
2022/03/05 03:49:48;;;;;;;80.97;32.03;;;0.50;99.90;;;;;;10367840;28;20389;-84
2022/03/05 03:54:50;;;;;;;83.90;29.80;;;0.50;99.90;;;;;;10367812;28;20038;-86
2022/03/05 03:59:52;;;;;;;74.67;30.57;;;0.50;99.90;;;;;;10368194;28;20034;-87
2022/03/05 04:04:52;;;;;;;72.60;29.07;;;0.50;99.90;;;;;;10367536;28;20165;-86
2022/03/05 04:09:54;;;;;;;75.57;28.73;;;0.50;99.90;;;;;;10350472;28;20520;-89
2022/03/05 04:14:55;;;;;;;71.43;25.60;;;0.50;99.90;;;;;;10350332;28;20025;-87
2022/03/05 04:19:56;;;;;;;71.93;27.40;;;0.40;99.90;;;;;;10367565;28;20109;-86
2022/03/05 04:24:56;;;;;;;62.03;26.87;;;0.40;99.90;;;;;;10367404;28;20434;-86
2022/03/05 04:29:57;;;;;;;70.13;27.47;;;0.40;99.90;;;;;;10367463;28;20117;-87
2022/03/05 04:34:58;;;;;;;73.07;29.63;;;0.40;99.90;;;;;;10365025;28;20492;-88
2022/03/05 04:39:58;;;;;;;73.07;27.90;;;0.30;99.90;;;;;;10366858;28;20034;-86
2022/03/05 04:44:59;;;;;;;68.63;27.23;;;0.30;99.90;;;;;;10367595;28;20029;-87
2022/03/05 04:50:00;;;;;;;65.07;25.40;;;0.30;99.90;;;;;;10366375;28;20049;-90
2022/03/05 04:55:02;;;;;;;70.93;26.03;;;0.30;99.90;;;;;;10344350;28;20025;-87
2022/03/05 05:00:06;;;;;;;62.40;24.63;;;0.30;99.90;;;;;;10347298;28;20034;-87
2022/03/05 05:05:07;;;;;;;68.67;26.60;;;0.30;99.90;;;;;;10368307;28;20038;-88
2022/03/05 05:10:08;;;;;;;59.60;24.70;;;0.30;99.90;;;;;;10347173;28;20444;-86
2022/03/05 05:15:09;;;;;;;60.43;24.10;;;0.30;99.90;;;;;;10348769;28;20034;-86
2022/03/05 05:20:11;;;;;;;67.73;26.13;;;0.30;99.90;;;;;;10357002;28;20036;-87
2022/03/05 05:25:11;;;;;;;75.80;29.60;;;0.30;99.90;;;;;;10385495;28;20071;-87
2022/03/05 05:30:12;;;;;;;64.20;23.60;;;0.20;99.90;;;;;;10376676;28;20054;-85
2022/03/05 05:35:13;;;;;;;56.73;23.70;;;0.20;99.90;;;;;;10365255;28;20104;-88
2022/03/05 05:40:14;;;;;;;55.37;21.60;;;0.10;99.90;;;;;;10365801;28;20047;-86
2022/03/05 05:45:14;;;;;;;59.97;24.07;;;0.00;99.90;;;;;;10355641;28;20041;-87
2022/03/05 05:50:15;;;;;;;56.70;23.63;;;-0.10;99.90;;;;;;10372316;28;20045;-87
2022/03/05 05:55:15;;;;;;;65.43;25.07;;;-0.30;99.90;;;;;;10373589;28;20026;-87
2022/03/05 06:00:16;;;;;;;55.03;23.77;;;-0.50;99.90;;;;;;10373302;28;20060;-87
2022/03/05 06:05:17;;;;;;;66.17;24.87;;;-0.60;99.90;;;;;;10372684;28;20045;-87
2022/03/05 06:10:18;;;;;;;60.43;23.90;;;-0.70;99.90;;;;;;10376661;28;20033;-87
2022/03/05 06:15:19;;;;;;;55.37;22.77;;;-1.10;99.90;;;;;;10372913;28;20026;-87
2022/03/05 06:20:19;;;;;;;64.57;26.43;;;-1.30;99.90;;;;;;10372332;28;20040;-87
2022/03/05 06:25:20;;;;;;;57.67;22.80;;;-1.20;99.90;;;;;;10372352;28;20489;-88
2022/03/05 06:30:21;;;;;;;65.90;26.87;;;-1.10;99.90;;;;;;10371798;28;20118;-87
2022/03/05 06:35:22;;;;;;;66.20;28.43;;;-1.00;99.90;;;;;;10372104;28;20406;-87
2022/03/05 06:40:23;;;;;;;67.63;26.17;;;-0.80;99.90;;;;;;10353988;28;20033;-89
2022/03/05 06:45:24;;;;;;;73.30;30.00;;;-0.70;99.90;;;;;;10371543;28;20033;-88
2022/03/05 06:50:25;;;;;;;60.97;26.43;;;-0.50;99.90;;;;;;10371430;28;20041;-87
2022/03/05 06:55:26;;;;;;;65.73;28.87;;;-0.30;99.90;;;;;;10370546;28;20370;-88
2022/03/05 07:00:26;;;;;;;62.20;28.50;;;0.00;99.90;;;;;;10371407;28;20104;-86
2022/03/05 07:05:27;;;;;;;62.40;25.93;;;0.30;99.90;;;;;;10334517;28;20437;-85
2022/03/05 07:10:28;;;;;;;57.50;25.43;;;0.40;99.90;;;;;;10352746;28;20034;-85
2022/03/05 07:15:29;;;;;;;56.77;23.47;;;0.50;99.90;;;;;;10369961;28;20030;-85
2022/03/05 07:20:29;;;;;;;54.73;24.43;;;0.60;99.90;;;;;;10368976;28;20505;-85
2022/03/05 07:25:36;;;;;;;57.93;25.60;;;0.60;99.90;;;;;;10365355;28;20037;-86
2022/03/05 07:30:37;;;;;;;72.70;27.60;;;0.70;99.90;;;;;;10369765;28;20141;-85
2022/03/05 07:35:38;;;;;;;58.60;26.90;;;0.80;99.90;;;;;;10369491;28;20060;-87
2022/03/05 07:40:38;;;;;;;61.17;27.67;;;0.80;99.90;;;;;;10365488;28;20136;-84
2022/03/05 07:45:39;;;;;;;59.47;27.90;;;0.90;99.90;;;;;;10368695;28;20137;-86
2022/03/05 07:50:41;;;;;;;54.33;26.10;;;1.00;99.90;;;;;;10369084;28;20113;-85
2022/03/05 07:55:41;;;;;;;61.73;27.33;;;1.00;99.90;;;;;;10368405;28;20099;-84
2022/03/05 08:00:42;;;;;;;55.93;25.37;;;1.00;99.90;;;;;;10369684;28;20034;-86
2022/03/05 08:05:43;;;;;;;57.23;28.13;;;1.10;99.90;;;;;;10366222;28;20049;-82
2022/03/05 08:10:44;;;;;;;56.90;26.23;;;1.10;99.90;;;;;;10368620;28;20415;-83
2022/03/05 08:15:45;;;;;;;51.97;23.30;;;1.20;99.90;;;;;;10367635;28;20080;-84
2022/03/05 08:20:45;;;;;;;42.00;18.73;;;1.30;99.90;;;;;;10352990;28;20386;-85
2022/03/05 08:25:46;;;;;;;38.63;18.07;;;1.30;99.90;;;;;;10363097;28;20466;-83
2022/03/05 08:30:47;;;;;;;45.10;19.63;;;1.40;99.90;;;;;;10367721;28;20034;-85
2022/03/05 08:35:49;;;;;;;39.17;19.10;;;1.40;99.90;;;;;;10367001;28;20116;-85
2022/03/05 08:40:50;;;;;;;38.73;17.57;;;1.50;99.90;;;;;;10367148;28;20056;-84
2022/03/05 08:45:51;;;;;;;36.73;17.30;;;1.70;99.90;;;;;;10367477;28;20533;-83
2022/03/05 08:50:51;;;;;;;43.37;19.27;;;1.80;99.90;;;;;;10348633;28;20068;-86
2022/03/05 08:55:52;;;;;;;32.60;16.20;;;2.10;99.90;;;;;;10361962;28;20048;-86
2022/03/05 09:00:53;;;;;;;35.77;16.27;;;2.30;99.90;;;;;;10349614;28;20022;-84
2022/03/05 09:05:54;;;;;;;33.43;16.43;;;2.40;99.90;;;;;;10367219;28;20034;-86
2022/03/05 09:10:55;;;;;;;34.20;15.40;;;2.50;99.90;;;;;;10367003;28;20033;-87
2022/03/05 09:15:56;;;;;;;34.10;14.63;;;2.50;99.90;;;;;;10370301;28;20021;-85
2022/03/05 09:20:56;;;;;;;29.80;14.20;;;2.60;99.90;;;;;;10373950;28;20038;-85
2022/03/05 09:25:57;;;;;;;30.13;14.03;;;2.60;99.90;;;;;;10343856;28;20058;-86
2022/03/05 09:37:34;;;;;;;24.23;10.03;;;2.90;99.90;;;;;;10364814;28;20505;-86
2022/03/05 09:42:52;;;;;;;21.00;9.40;;;2.80;99.90;;;;;;10354865;28;20033;-86
2022/03/05 09:47:55;;;;;;;18.80;8.83;;;2.50;99.90;;;;;;10371206;28;20040;-86
2022/03/05 10:11:06;;;;;;;13.87;7.23;;;2.50;99.90;;;;;;10366149;28;20437;-85
2022/03/05 10:16:24;;;;;;;16.80;8.80;;;2.80;99.90;;;;;;10371343;28;20048;-84
2022/03/05 10:21:32;;;;;;;11.53;5.50;;;3.50;99.90;;;;;;10365395;28;20084;-84
2022/03/05 10:26:52;;;;;;;12.43;6.63;;;3.90;99.90;;;;;;10352501;28;20053;-84
2022/03/05 10:32:02;;;;;;;68.57;21.53;;;3.90;99.90;;;;;;10370629;28;20064;-85
2022/03/05 10:37:03;;;;;;;9.67;5.00;;;4.10;99.90;;;;;;10353187;28;20076;-85
2022/03/05 10:42:23;;;;;;;10.13;5.63;;;4.10;99.90;;;;;;10359413;28;20342;-84
2022/03/05 10:47:24;;;;;;;11.63;5.93;;;3.70;99.90;;;;;;10359171;28;20039;-83
2022/03/05 10:52:24;;;;;;;10.00;4.97;;;3.70;99.90;;;;;;10370475;28;20072;-84
2022/03/05 10:57:26;;;;;;;14.80;6.63;;;3.50;99.90;;;;;;10352892;28;20062;-84
2022/03/05 11:02:27;;;;;;;11.83;5.73;;;3.80;99.90;;;;;;10370458;28;20040;-86
2022/03/05 11:07:28;;;;;;;13.40;6.53;;;3.80;99.90;;;;;;10369802;28;20033;-85
2022/03/05 11:12:30;;;;;;;16.90;7.83;;;4.00;99.90;;;;;;10370138;28;20030;-84
2022/03/05 11:17:31;;;;;;;12.40;5.90;;;3.80;99.90;;;;;;10365488;28;20087;-85
2022/03/05 11:22:33;;;;;;;13.77;6.30;;;3.50;99.90;;;;;;10368760;28;20085;-86
2022/03/05 11:27:36;;;;;;;11.30;5.67;;;3.40;99.90;;;;;;10368932;28;20038;-84
2022/03/05 11:32:40;;;;;;;10.67;5.90;;;3.30;99.90;;;;;;10368696;28;20038;-84
2022/03/05 11:37:40;;;;;;;12.93;5.60;;;3.10;99.90;;;;;;10368992;28;20539;-83
2022/03/05 11:42:41;;;;;;;18.30;6.63;;;3.20;99.90;;;;;;10359585;28;20076;-83
2022/03/05 11:47:42;;;;;;;12.07;5.63;;;4.00;99.90;;;;;;10363822;28;20046;-84
2022/03/05 11:52:43;;;;;;;140.23;64.23;;;3.90;99.90;;;;;;10367992;28;20141;-85
2022/03/05 11:57:52;;;;;;;40.57;17.13;;;3.80;99.90;;;;;;10364300;28;20038;-85
2022/03/05 12:02:55;;;;;;;9.57;5.13;;;4.30;99.90;;;;;;10367474;28;20464;-84
2022/03/05 12:07:55;;;;;;;9.27;5.47;;;4.20;99.90;;;;;;10366677;28;20407;-83
2022/03/05 12:12:58;;;;;;;10.80;5.60;;;4.20;99.90;;;;;;10350107;28;20087;-83
2022/03/05 12:18:02;;;;;;;207.73;109.10;;;4.00;99.90;;;;;;10368840;28;20108;-86
2022/03/05 12:23:16;;;;;;;11.47;6.27;;;3.90;99.90;;;;;;10345596;28;20057;-86
2022/03/05 12:28:26;;;;;;;14.00;5.97;;;4.00;99.90;;;;;;10356422;28;20046;-84
2022/03/05 12:33:26;;;;;;;12.77;6.47;;;3.80;99.90;;;;;;10366752;28;20037;-84
2022/03/05 12:38:27;;;;;;;21.07;9.30;;;4.00;99.90;;;;;;10347978;28;20635;-85
2022/03/05 12:43:28;;;;;;;28.27;11.53;;;4.10;99.90;;;;;;10351359;28;20426;-83
2022/03/05 12:48:29;;;;;;;276.67;108.23;;;4.00;99.90;;;;;;10356640;28;20490;-85
2022/03/05 12:53:34;;;;;;;39.60;16.57;;;3.90;99.90;;;;;;10378546;28;20034;-86
2022/03/05 12:58:37;;;;;;;86.53;38.70;;;4.00;99.90;;;;;;10379396;28;20026;-86
2022/03/05 13:03:39;;;;;;;71.20;32.23;;;4.10;99.90;;;;;;10379700;28;20291;-86
2022/03/05 13:08:40;;;;;;;113.20;53.00;;;3.90;99.90;;;;;;10380452;28;20389;-85
2022/03/05 13:13:49;;;;;;;24.10;11.17;;;3.60;99.90;;;;;;10379348;28;20117;-84
2022/03/05 13:18:58;;;;;;;22.00;10.83;;;3.60;99.90;;;;;;10379168;28;20503;-84
2022/03/05 13:24:08;;;;;;;14.63;7.67;;;3.60;99.90;;;;;;10378923;28;20030;-85
2022/03/05 13:29:09;;;;;;;17.07;9.13;;;3.40;99.90;;;;;;10370486;28;20511;-84
2022/03/05 13:34:23;;;;;;;18.30;8.30;;;3.20;99.90;;;;;;10378313;28;20164;-83
2022/03/05 13:39:26;;;;;;;12.63;7.87;;;3.10;99.90;;;;;;10378586;28;20037;-85
2022/03/05 13:44:30;;;;;;;17.07;8.37;;;3.00;99.90;;;;;;10380031;28;20026;-85
2022/03/05 13:49:31;;;;;;;15.10;8.00;;;2.90;99.90;;;;;;10378395;28;20056;-87
2022/03/05 13:54:40;;;;;;;15.27;7.70;;;2.80;99.90;;;;;;10379110;28;20029;-85
2022/03/05 13:59:43;;;;;;;15.07;7.70;;;2.60;99.90;;;;;;10379299;28;20115;-85
2022/03/05 14:05:12;;;;;;;13.90;7.63;;;3.00;99.90;;;;;;10372140;28;20034;-85
2022/03/05 14:10:14;;;;;;;14.57;8.27;;;3.10;99.90;;;;;;10372227;28;20079;-85
2022/03/05 14:15:16;;;;;;;15.10;8.50;;;3.00;99.90;;;;;;10372190;28;20037;-86
2022/03/05 14:20:17;;;;;;;17.10;8.50;;;2.90;99.90;;;;;;10353628;28;20076;-85
2022/03/05 14:25:17;;;;;;;14.77;7.43;;;2.80;99.90;;;;;;10371258;28;20139;-85
2022/03/05 14:30:19;;;;;;;16.20;7.80;;;2.50;99.90;;;;;;10372302;28;20063;-84
2022/03/05 14:35:21;;;;;;;18.33;8.87;;;2.60;99.90;;;;;;10358797;28;20030;-86
2022/03/05 14:40:26;;;;;;;16.60;8.87;;;2.90;99.90;;;;;;10370993;28;20053;-86
2022/03/05 14:45:27;;;;;;;68.37;27.40;;;3.00;99.90;;;;;;10369427;28;20034;-85
2022/03/05 14:50:28;;;;;;;33.40;14.27;;;3.20;99.90;;;;;;10369329;28;20034;-85
2022/03/05 14:55:29;;;;;;;87.60;33.03;;;3.00;99.90;;;;;;10350829;28;20037;-85
2022/03/05 15:00:30;;;;;;;78.37;30.43;;;2.90;99.90;;;;;;10369262;28;20033;-85
2022/03/05 15:05:31;;;;;;;147.73;53.17;;;2.80;99.90;;;;;;10370470;28;20061;-85
2022/03/05 15:10:31;;;;;;;76.47;29.97;;;2.70;99.90;;;;;;10368934;28;20038;-84
2022/03/05 15:15:32;;;;;;;73.03;26.93;;;2.40;99.90;;;;;;10369977;28;20034;-86
2022/03/05 15:20:35;;;;;;;45.40;21.03;;;2.20;99.90;;;;;;10370128;28;20037;-84
2022/03/05 15:25:36;;;;;;;48.70;26.13;;;2.00;99.90;;;;;;10369941;28;20041;-86
2022/03/05 15:30:36;;;;;;;17.63;8.73;;;2.00;99.90;;;;;;10370158;28;20136;-85
2022/03/05 15:35:38;;;;;;;87.03;41.80;;;1.80;99.90;;;;;;10369510;28;20436;-84
2022/03/05 15:40:38;;;;;;;25.77;13.73;;;1.60;99.90;;;;;;10369546;28;20022;-84
2022/03/05 15:45:40;;;;;;;35.73;23.57;;;1.50;99.90;;;;;;10369230;28;20073;-86
2022/03/05 15:50:41;;;;;;;31.67;15.37;;;1.50;99.90;;;;;;10351225;28;20117;-85
2022/03/05 15:55:42;;;;;;;25.90;14.40;;;1.40;99.90;;;;;;10353453;28;20034;-84
2022/03/05 16:00:43;;;;;;;28.57;13.90;;;1.30;99.90;;;;;;10368473;28;20117;-84
2022/03/05 16:05:44;;;;;;;26.10;15.37;;;1.20;99.90;;;;;;10368725;28;20033;-84
2022/03/05 16:10:45;;;;;;;32.90;16.10;;;1.10;99.90;;;;;;10369254;28;20029;-85
2022/03/05 16:15:46;;;;;;;45.03;19.20;;;1.00;99.90;;;;;;10367952;28;20120;-85
2022/03/05 16:20:47;;;;;;;74.00;25.10;;;0.90;99.90;;;;;;10368253;28;20117;-84
2022/03/05 16:25:48;;;;;;;35.77;16.27;;;0.90;99.90;;;;;;10349419;28;20038;-85
2022/03/05 16:30:48;;;;;;;40.83;18.23;;;0.70;99.90;;;;;;10368674;28;20034;-84
2022/03/05 16:35:49;;;;;;;52.70;22.17;;;0.50;99.90;;;;;;10367866;28;20071;-85
2022/03/05 16:40:50;;;;;;;37.53;18.63;;;0.30;99.90;;;;;;10367289;28;20029;-86
2022/03/05 16:45:51;;;;;;;43.77;18.97;;;0.10;99.90;;;;;;10367604;28;20038;-84
2022/03/05 16:50:52;;;;;;;32.17;16.20;;;-0.10;99.90;;;;;;10367266;28;20034;-84
2022/03/05 16:55:52;;;;;;;45.90;21.87;;;-0.40;99.90;;;;;;10349590;28;20018;-85
2022/03/05 17:00:53;;;;;;;53.40;23.03;;;-0.40;99.90;;;;;;10367277;28;20069;-84
2022/03/05 17:05:54;;;;;;;45.20;23.03;;;-0.60;99.90;;;;;;10366808;28;20041;-85
2022/03/05 17:10:55;;;;;;;45.80;21.60;;;-0.60;99.90;;;;;;10367832;28;20092;-84
2022/03/05 17:15:56;;;;;;;44.30;20.53;;;-0.80;99.90;;;;;;10366743;28;20030;-84
2022/03/05 17:20:57;;;;;;;50.30;23.43;;;-0.90;99.90;;;;;;10366838;28;20496;-84
2022/03/05 17:25:57;;;;;;;57.17;22.57;;;-1.00;99.90;;;;;;10366604;28;20123;-85
2022/03/05 17:30:58;;;;;;;54.13;24.70;;;-1.00;99.90;;;;;;10349216;28;20072;-85
2022/03/05 17:35:59;;;;;;;74.70;30.80;;;-1.10;99.90;;;;;;10348944;28;20072;-85
2022/03/05 17:41:00;;;;;;;75.07;33.40;;;-1.10;99.90;;;;;;10373679;28;20034;-85
2022/03/05 17:46:00;;;;;;;78.20;33.47;;;-1.00;99.90;;;;;;10374084;28;20069;-85
2022/03/05 17:51:01;;;;;;;71.67;33.07;;;-0.90;99.90;;;;;;10374776;28;20030;-85
2022/03/05 17:56:03;;;;;;;72.87;31.00;;;-0.90;99.90;;;;;;10373612;28;20123;-84
2022/03/05 18:01:04;;;;;;;77.17;34.30;;;-0.90;99.90;;;;;;10350498;28;20509;-85
2022/03/05 18:06:09;;;;;;;93.67;37.57;;;-0.90;99.90;;;;;;10348395;28;20030;-85
2022/03/05 18:11:10;;;;;;;94.87;39.87;;;-0.90;99.90;;;;;;10373834;28;20033;-86
2022/03/05 18:16:11;;;;;;;101.50;39.30;;;-1.00;99.90;;;;;;10373556;28;20034;-86
2022/03/05 18:21:11;;;;;;;91.20;37.73;;;-1.10;99.90;;;;;;10373128;28;20034;-86
2022/03/05 18:26:12;;;;;;;85.00;36.17;;;-1.20;99.90;;;;;;10372459;28;20030;-86
2022/03/05 18:31:13;;;;;;;89.17;35.60;;;-1.40;99.90;;;;;;10372615;28;20046;-85
2022/03/05 18:36:14;;;;;;;83.77;36.63;;;-1.40;99.90;;;;;;10371987;28;20050;-86
2022/03/05 18:41:15;;;;;;;90.80;36.87;;;-1.40;99.90;;;;;;10371583;28;20121;-85
2022/03/05 18:46:16;;;;;;;82.83;37.50;;;-1.40;99.90;;;;;;10372629;28;20038;-85
2022/03/05 18:51:16;;;;;;;79.47;34.13;;;-1.30;99.90;;;;;;10370805;28;20033;-86
2022/03/05 18:56:17;;;;;;;78.53;34.23;;;-1.20;99.90;;;;;;10371143;28;20033;-87
2022/03/05 19:01:18;;;;;;;79.43;36.93;;;-1.20;99.90;;;;;;10371073;28;20220;-86
2022/03/05 19:06:19;;;;;;;94.93;40.10;;;-1.00;99.90;;;;;;10353237;28;20034;-85
2022/03/05 19:11:20;;;;;;;102.63;41.20;;;-1.00;99.90;;;;;;10353035;28;20378;-85
2022/03/05 19:16:21;;;;;;;98.73;40.77;;;-1.00;99.90;;;;;;10370873;28;20018;-85
2022/03/05 19:21:23;;;;;;;110.17;44.13;;;-1.00;99.90;;;;;;10370056;28;20108;-85
2022/03/05 19:26:23;;;;;;;102.47;40.83;;;-0.90;99.90;;;;;;10370593;28;20644;-86
2022/03/05 19:31:24;;;;;;;101.60;41.43;;;-0.90;99.90;;;;;;10370270;28;20026;-85
2022/03/05 19:36:25;;;;;;;104.30;43.30;;;-0.90;99.90;;;;;;10367467;28;20105;-85
2022/03/05 19:41:25;;;;;;;108.83;43.83;;;-0.90;99.90;;;;;;10362604;28;20127;-84
2022/03/05 19:46:26;;;;;;;114.13;49.47;;;-0.90;99.90;;;;;;10350475;28;20140;-85
2022/03/05 19:51:27;;;;;;;118.17;48.40;;;-0.90;99.90;;;;;;10367694;28;20034;-86
2022/03/05 19:56:28;;;;;;;114.30;49.47;;;-0.90;99.90;;;;;;10369084;28;20095;-85
2022/03/05 20:01:29;;;;;;;117.03;49.10;;;-0.90;99.90;;;;;;10366631;28;20068;-87
2022/03/05 20:06:31;;;;;;;134.50;53.23;;;-0.90;99.90;;;;;;10368627;28;20045;-86
2022/03/05 20:11:31;;;;;;;132.00;54.23;;;-0.90;99.90;;;;;;10367695;28;20700;-85
2022/03/05 20:16:32;;;;;;;138.07;53.97;;;-0.90;99.90;;;;;;10355927;28;20054;-86
2022/03/05 20:21:33;;;;;;;145.70;60.00;;;-0.90;99.90;;;;;;10344262;28;20030;-87
2022/03/05 20:26:36;;;;;;;127.10;52.83;;;-0.90;99.90;;;;;;10368450;28;20387;-87
2022/03/05 20:31:40;;;;;;;110.97;46.50;;;-0.90;99.90;;;;;;10350247;28;20076;-85
2022/03/05 20:36:43;;;;;;;103.37;44.33;;;-0.90;99.90;;;;;;10320729;28;20080;-88
2022/03/05 20:41:45;;;;;;;98.93;42.40;;;-0.80;99.90;;;;;;10355331;28;20080;-86
2022/03/05 20:46:45;;;;;;;101.30;41.63;;;-0.80;99.90;;;;;;10353402;28;20045;-86
2022/03/05 20:51:46;;;;;;;99.90;41.67;;;-0.60;99.90;;;;;;10348746;28;20034;-88
2022/03/05 20:56:47;;;;;;;92.20;40.33;;;-0.60;99.90;;;;;;10366195;28;20037;-85
2022/03/05 21:01:48;;;;;;;100.40;44.83;;;-0.60;99.90;;;;;;10365454;28;20105;-87
2022/03/05 21:07:27;;;;;;;;;;;;;;;;;;;;;
2022/03/05 21:12:28;;;;;;;104.87;44.77;;;-0.60;99.90;;;;;;10354317;28;20029;-85
2022/03/05 21:17:43;;;;;;;101.37;42.47;;;-0.60;99.90;;;;;;10372146;28;20560;-85
2022/03/05 21:22:44;;;;;;;107.90;46.60;;;-0.70;99.90;;;;;;10374512;28;20054;-85
2022/03/05 21:28:01;;;;;;;93.87;40.50;;;-0.70;99.90;;;;;;10373350;28;20451;-85
2022/03/05 21:34:04;;;;;;;87.90;36.40;;;-0.70;99.90;;;;;;10359759;28;20040;-85
2022/03/05 21:39:35;;;;;;;89.33;35.03;;;-0.60;99.90;;;;;;10243662;28;20500;-86
2022/03/05 21:44:36;;;;;;;84.37;35.83;;;-0.60;99.90;;;;;;10364545;28;20121;-86
2022/03/05 21:49:36;;;;;;;78.53;35.03;;;-0.60;99.90;;;;;;10373444;28;20630;-85
2022/03/05 21:54:37;;;;;;;85.33;35.80;;;-0.60;99.90;;;;;;10355721;28;20586;-85
2022/03/05 22:00:10;;;;;;;79.17;34.70;;;-0.60;99.90;;;;;;10372395;28;20470;-87
2022/03/05 22:05:13;;;;;;;80.37;35.17;;;-0.50;99.90;;;;;;10371794;28;20490;-87
2022/03/05 22:10:17;;;;;;;77.13;33.50;;;-0.50;99.90;;;;;;10371419;28;20086;-86
2022/03/05 22:15:17;;;;;;;85.00;38.87;;;-0.50;99.90;;;;;;10359696;28;20045;-86
2022/03/05 22:20:59;;;;;;;84.70;34.63;;;-0.50;99.90;;;;;;10370397;28;20053;-87
2022/03/05 22:26:20;;;;;;;82.63;35.47;;;-0.50;99.90;;;;;;10370617;28;20030;-87
2022/03/05 22:31:21;;;;;;;82.20;35.80;;;-0.50;99.90;;;;;;10358705;28;20021;-87
2022/03/05 22:36:23;;;;;;;82.20;34.83;;;-0.50;99.90;;;;;;10357154;28;20049;-85
2022/03/05 22:41:24;;;;;;;80.37;33.37;;;-0.40;99.90;;;;;;10362175;28;20038;-85
2022/03/05 22:46:24;;;;;;;78.50;35.17;;;-0.50;99.90;;;;;;10358245;28;20046;-87
2022/03/05 22:51:25;;;;;;;78.00;32.97;;;-0.50;99.90;;;;;;10364088;28;20040;-87
2022/03/05 22:56:26;;;;;;;79.63;36.03;;;-0.40;99.90;;;;;;10360157;28;20029;-86
2022/03/05 23:01:28;;;;;;;73.83;32.47;;;-0.40;99.90;;;;;;10362986;28;20404;-88
2022/03/05 23:06:29;;;;;;;78.57;32.20;;;-0.40;99.90;;;;;;10318491;28;20133;-86
2022/03/05 23:11:30;;;;;;;71.90;33.57;;;-0.40;99.90;;;;;;10356581;28;20034;-87
2022/03/05 23:16:32;;;;;;;76.23;34.23;;;-0.40;99.90;;;;;;10369881;28;20026;-86
2022/03/05 23:21:33;;;;;;;79.60;33.67;;;-0.40;99.90;;;;;;10369898;28;20064;-86
2022/03/05 23:26:36;;;;;;;85.17;34.97;;;-0.40;99.90;;;;;;10369324;28;20501;-86
2022/03/05 23:31:38;;;;;;;82.73;34.30;;;-0.40;99.90;;;;;;10351693;28;20037;-86
2022/03/05 23:36:39;;;;;;;84.50;33.73;;;-0.40;99.90;;;;;;10351855;28;20054;-86
2022/03/05 23:41:40;;;;;;;87.57;37.17;;;-0.40;99.90;;;;;;10368735;28;20466;-86
2022/03/05 23:46:41;;;;;;;97.40;38.03;;;-0.40;99.90;;;;;;10368876;28;20119;-86
2022/03/05 23:51:42;;;;;;;95.13;40.00;;;-0.40;99.90;;;;;;10367998;28;20065;-87
2022/03/05 23:56:42;;;;;;;100.37;41.30;;;-0.50;99.90;;;;;;10369748;28;20045;-86
